createdAt,value
2018-05-04T00:02:04.660Z,76.50
2018-05-04T00:04:34.178Z,76.40
2018-05-04T00:07:02.957Z,76.70
2018-05-04T00:12:07.318Z,77.10
2018-05-04T00:14:40.559Z,78.40
2018-05-04T00:17:09.333Z,78.80
2018-05-04T00:19:42.662Z,79.10
2018-05-04T00:22:13.161Z,79.40
2018-05-04T00:24:45.423Z,79.70
2018-05-04T00:27:14.864Z,79.70
2018-05-04T00:29:56.533Z,80.10
2018-05-04T00:32:26.011Z,80.20
2018-05-04T00:34:54.794Z,80.30
2018-05-04T00:37:25.732Z,80.20
2018-05-04T00:39:55.228Z,80.30
2018-05-04T00:42:24.136Z,80.30
2018-05-04T00:44:55.663Z,80.50
2018-05-04T00:47:25.767Z,81.30
2018-05-04T00:49:58.278Z,81.20
2018-05-04T01:10:14.275Z,80.70
2018-05-04T01:12:43.533Z,80.40
2018-05-04T01:15:13.606Z,80.40
2018-05-04T01:17:42.306Z,80.80
2018-05-04T01:20:12.975Z,80.50
2018-05-04T01:22:42.827Z,81.30
2018-05-04T01:25:16.229Z,82.10
2018-05-04T01:27:44.927Z,82.40
2018-05-04T01:30:18.773Z,81.90
2018-05-04T01:32:47.646Z,82.10
2018-05-04T01:35:19.375Z,82.50
2018-05-04T01:37:48.541Z,82.70
2018-05-04T01:40:21.745Z,83.30
2018-05-04T01:42:50.943Z,82.00
2018-05-04T01:45:24.485Z,82.10
2018-05-04T01:47:54.686Z,82.30
2018-05-04T01:55:36.414Z,82.60
2018-05-04T01:58:05.638Z,82.50
2018-05-04T02:00:34.705Z,82.50
2018-05-04T02:03:03.427Z,82.90
2018-05-04T02:05:32.734Z,84.70
2018-05-04T02:08:02.190Z,83.80
2018-05-04T02:10:34.828Z,83.60
2018-05-04T02:13:04.875Z,84.20
2018-05-04T02:15:38.520Z,83.50
2018-05-04T02:18:07.242Z,83.10
2018-05-04T02:20:39.255Z,84.10
2018-05-04T02:23:08.796Z,84.30
2018-05-04T02:25:41.447Z,84.60
2018-05-04T02:28:10.740Z,85.00
2018-05-04T02:30:43.927Z,85.50
2018-05-04T02:33:12.908Z,85.60
2018-05-04T02:35:45.874Z,85.50
2018-05-04T02:38:14.732Z,85.60
2018-05-04T02:40:47.843Z,86.00
2018-05-04T02:43:16.571Z,86.00
2018-05-04T02:45:49.659Z,85.60
2018-05-04T02:48:18.843Z,85.80
2018-05-04T02:50:52.196Z,85.80
2018-05-04T02:53:22.627Z,85.60
2018-05-04T02:58:24.847Z,85.70
2018-05-04T03:00:57.806Z,86.20
2018-05-04T03:03:27.017Z,86.80
2018-05-04T03:06:01.509Z,86.50
2018-05-04T03:11:03.764Z,87.20
2018-05-04T03:13:32.516Z,87.40
2018-05-04T03:16:05.750Z,87.50
2018-05-04T03:18:34.880Z,88.10
2018-05-04T03:21:08.816Z,88.00
2018-05-04T03:26:20.429Z,88.00
2018-05-04T03:28:49.164Z,88.00
2018-05-04T03:31:19.227Z,88.40
2018-05-04T03:33:48.740Z,87.20
2018-05-04T03:36:17.463Z,87.80
2018-05-04T03:38:46.581Z,87.80
2018-05-04T03:41:17.896Z,87.40
2018-05-04T03:43:48.092Z,88.00
2018-05-04T03:46:20.307Z,87.90
2018-05-04T03:48:49.847Z,89.20
2018-05-04T03:51:21.983Z,88.70
2018-05-04T03:56:24.516Z,88.70
2018-05-04T04:03:14.643Z,88.20
2018-05-04T04:05:43.397Z,88.40
2018-05-04T04:08:12.116Z,89.10
2018-05-04T04:10:42.859Z,88.90
2018-05-04T04:13:11.574Z,88.70
2018-05-04T04:15:41.815Z,89.10
2018-05-04T04:18:12.115Z,89.00
2018-05-04T04:20:41.965Z,88.80
2018-05-04T04:25:41.824Z,88.90
2018-05-04T04:30:40.284Z,89.90
2018-05-04T04:33:09.736Z,89.00
2018-05-04T04:35:41.231Z,88.90
2018-05-04T04:40:44.226Z,89.00
2018-05-04T04:43:14.447Z,89.70
2018-05-04T04:45:46.038Z,89.50
2018-05-04T04:48:15.817Z,89.30
2018-05-04T04:53:17.247Z,89.60
2018-05-04T04:55:59.396Z,89.20
2018-05-04T04:58:28.140Z,89.20
2018-05-04T05:00:56.847Z,89.70
2018-05-04T05:05:57.496Z,89.40
2018-05-04T05:13:27.597Z,88.60
2018-05-04T05:18:29.967Z,87.70
2018-05-04T05:26:06.125Z,86.60
2018-05-04T05:28:37.828Z,86.40
2018-05-04T05:41:15.251Z,85.10
2018-05-04T05:46:16.813Z,86.70
2018-05-04T05:51:29.192Z,85.60
2018-05-04T05:56:28.156Z,85.40
2018-05-04T05:59:06.024Z,85.00
2018-05-04T06:04:05.701Z,84.10
2018-05-04T06:06:34.399Z,79.50
2018-05-04T06:09:03.530Z,74.30
2018-05-04T06:11:32.281Z,69.80
2018-05-04T06:14:02.199Z,68.00
2018-05-04T06:16:32.357Z,64.70
2018-05-04T06:19:02.655Z,64.70
2018-05-04T06:21:32.158Z,58.40
2018-05-04T06:24:01.215Z,58.10
2018-05-04T06:26:33.691Z,57.30
2018-05-04T06:29:02.811Z,52.70
2018-05-04T06:31:35.836Z,52.40
2018-05-04T06:34:04.704Z,52.90
2018-05-04T06:36:38.840Z,51.80
2018-05-04T06:39:08.635Z,51.20
2018-05-04T06:41:41.868Z,52.60
2018-05-04T06:44:10.608Z,52.90
2018-05-04T06:46:43.685Z,52.00
2018-05-04T06:49:13.228Z,51.70
2018-05-04T06:51:55.836Z,48.30
2018-05-04T06:54:25.715Z,47.10
2018-05-04T06:56:54.548Z,43.00
2018-05-04T06:59:23.861Z,43.50
2018-05-04T07:01:53.871Z,40.70
2018-05-04T07:04:31.185Z,41.50
2018-05-04T07:07:02.093Z,43.70
2018-05-04T07:09:31.600Z,46.50
2018-05-04T07:12:01.180Z,40.90
2018-05-04T07:14:30.667Z,40.90
2018-05-04T07:16:59.455Z,41.70
2018-05-04T07:19:28.972Z,43.20
2018-05-04T07:22:03.442Z,42.80
2018-05-04T07:24:32.130Z,39.60
2018-05-04T07:27:04.469Z,38.50
2018-05-04T07:29:34.477Z,42.80
2018-05-04T07:32:07.031Z,40.80
2018-05-04T07:34:35.785Z,40.30
2018-05-04T07:37:18.283Z,42.00
2018-05-04T07:39:47.415Z,41.80
2018-05-04T07:42:16.670Z,40.60
2018-05-04T07:44:46.228Z,41.00
2018-05-04T07:47:14.979Z,40.70
2018-05-04T07:49:44.178Z,41.10
2018-05-04T07:52:17.327Z,42.30
2018-05-04T07:54:46.847Z,42.30
2018-05-04T07:59:49.698Z,39.70
2018-05-04T08:15:40.381Z,35.60
2018-05-04T08:18:09.171Z,36.40
2018-05-04T08:20:39.134Z,35.40
2018-05-04T08:23:08.751Z,36.40
2018-05-04T08:25:37.611Z,37.80
2018-05-04T08:28:07.548Z,33.90
2018-05-04T08:30:36.357Z,31.40
2018-05-04T08:33:06.004Z,29.10
2018-05-04T08:35:35.340Z,28.60
2018-05-04T08:38:05.317Z,28.70
2018-05-04T08:40:38.229Z,32.20
2018-05-04T08:43:08.035Z,35.10
2018-05-04T08:48:07.476Z,34.40
2018-05-04T08:50:42.211Z,32.50
2018-05-04T08:53:11.030Z,29.80
2018-05-04T08:55:44.143Z,30.10
2018-05-04T08:58:14.123Z,29.70
2018-05-04T09:00:55.458Z,29.90
2018-05-04T09:03:25.632Z,29.50
2018-05-04T09:05:54.415Z,30.00
2018-05-04T09:08:33.406Z,29.80
2018-05-04T09:11:03.038Z,30.90
2018-05-04T09:16:03.475Z,31.30
2018-05-04T09:18:34.098Z,30.80
2018-05-04T09:21:03.696Z,30.30
2018-05-04T09:23:33.911Z,32.10
2018-05-04T09:26:04.033Z,32.30
2018-05-04T09:28:33.784Z,35.70
2018-05-04T09:31:02.847Z,37.10
2018-05-04T09:33:33.549Z,40.50
2018-05-04T09:36:04.707Z,41.60
2018-05-04T09:38:33.731Z,42.00
2018-05-04T09:41:11.626Z,42.80
2018-05-04T09:43:40.949Z,42.30
2018-05-04T09:46:12.250Z,42.80
2018-05-04T09:48:42.679Z,42.60
2018-05-04T09:51:13.409Z,42.90
2018-05-04T09:53:42.695Z,44.50
2018-05-04T09:58:44.886Z,43.40
2018-05-04T10:01:17.456Z,45.60
2018-05-04T10:03:47.080Z,45.80
2018-05-04T10:06:19.049Z,45.50
2018-05-04T10:08:48.865Z,47.00
2018-05-04T10:11:23.658Z,46.70
2018-05-04T10:13:52.525Z,44.00
2018-05-04T10:16:22.967Z,45.40
2018-05-04T10:18:52.461Z,45.90
2018-05-04T10:21:26.004Z,45.30
2018-05-04T10:23:55.028Z,46.20
2018-05-04T10:26:29.256Z,45.80
2018-05-04T10:28:58.079Z,45.80
2018-05-04T10:31:29.992Z,46.20
2018-05-04T10:33:59.278Z,42.80
2018-05-04T10:36:32.228Z,42.60
2018-05-04T10:41:34.457Z,44.70
2018-05-04T10:44:04.606Z,41.60
2018-05-04T10:46:36.658Z,42.50
2018-05-04T10:49:05.849Z,39.90
2018-05-04T10:51:38.504Z,41.70
2018-05-04T10:54:07.899Z,40.60
2018-05-04T10:56:41.351Z,40.70
2018-05-04T10:59:10.453Z,40.00
2018-05-04T11:01:43.948Z,40.70
2018-05-04T11:04:13.983Z,41.30
2018-05-04T11:06:46.534Z,41.90
2018-05-04T11:09:16.052Z,41.70
2018-05-04T11:11:48.546Z,41.30
2018-05-04T11:14:17.672Z,41.70
2018-05-04T11:16:59.864Z,40.30
2018-05-04T11:19:29.737Z,40.30
2018-05-04T11:21:59.916Z,39.60
2018-05-04T11:24:28.715Z,39.00
2018-05-04T11:26:57.870Z,39.70
2018-05-04T11:29:27.651Z,38.60
2018-05-04T11:31:58.304Z,39.40
2018-05-04T11:34:31.010Z,38.90
2018-05-04T11:37:01.003Z,39.30
2018-05-04T11:39:31.312Z,38.10
2018-05-04T11:42:03.459Z,36.10
2018-05-04T11:44:32.704Z,37.20
2018-05-04T11:47:05.776Z,37.40
2018-05-04T11:49:36.037Z,38.80
2018-05-04T11:52:09.336Z,38.50
2018-05-04T11:54:38.200Z,37.20
2018-05-04T11:57:20.826Z,36.10
2018-05-04T12:02:19.558Z,38.00
2018-05-04T12:04:48.333Z,36.20
2018-05-04T12:07:17.858Z,34.80
2018-05-04T12:09:47.735Z,36.80
2018-05-04T12:12:18.897Z,35.20
2018-05-04T12:17:22.148Z,37.10
2018-05-04T12:24:51.457Z,37.40
2018-05-04T12:27:25.444Z,35.90
2018-05-04T12:32:28.312Z,36.30
2018-05-04T12:34:57.473Z,37.50
2018-05-04T12:37:30.205Z,37.70
2018-05-04T12:40:00.043Z,37.70
2018-05-04T12:42:31.442Z,37.50
2018-05-04T12:45:03.191Z,37.80
2018-05-04T12:47:33.833Z,36.70
2018-05-04T12:52:36.339Z,38.70
2018-05-04T12:55:06.159Z,37.00
2018-05-04T12:57:38.568Z,38.00
2018-05-04T13:00:09.423Z,38.50
2018-05-04T13:02:40.913Z,38.00
2018-05-04T13:05:10.861Z,37.10
2018-05-04T13:07:43.580Z,36.90
2018-05-04T13:12:46.490Z,37.00
2018-05-04T13:15:15.243Z,36.00
2018-05-04T13:17:47.761Z,36.70
2018-05-04T13:20:17.747Z,36.80
2018-05-04T13:22:50.745Z,37.10
2018-05-04T13:25:20.277Z,37.00
2018-05-04T13:30:22.534Z,36.70
2018-05-04T13:32:55.632Z,37.10
2018-05-04T13:35:26.978Z,37.60
2018-05-04T13:37:58.207Z,39.10
2018-05-04T13:40:28.649Z,36.80
2018-05-04T13:45:29.214Z,37.50
2018-05-04T13:53:06.819Z,37.20
2018-05-04T13:55:35.745Z,38.10
2018-05-04T14:00:46.822Z,36.50
2018-05-04T14:03:15.759Z,37.60
2018-05-04T14:05:45.093Z,36.00
2018-05-04T14:08:14.819Z,37.50
2018-05-04T14:10:44.991Z,37.00
2018-05-04T14:13:17.686Z,38.40
2018-05-04T14:15:46.438Z,37.60
2018-05-04T14:18:18.609Z,36.20
2018-05-04T14:20:48.016Z,36.60
2018-05-04T14:23:21.183Z,36.40
2018-05-04T14:25:50.740Z,36.20
2018-05-04T14:28:29.035Z,37.30
2018-05-04T14:30:58.555Z,36.50
2018-05-04T14:33:27.704Z,36.90
2018-05-04T14:35:57.619Z,38.00
2018-05-04T14:38:29.128Z,35.90
2018-05-04T14:40:59.952Z,36.40
2018-05-04T14:43:29.604Z,38.00
2018-05-04T14:45:59.535Z,38.20
2018-05-04T14:48:31.792Z,38.50
2018-05-04T14:51:01.623Z,37.90
2018-05-04T14:53:35.039Z,38.10
2018-05-04T14:56:04.203Z,38.40
2018-05-04T14:58:37.062Z,37.70
2018-05-04T15:01:06.233Z,37.70
2018-05-04T15:03:39.082Z,37.10
2018-05-04T15:06:07.828Z,37.20
2018-05-04T15:08:42.099Z,36.90
2018-05-04T15:13:56.188Z,37.70
2018-05-04T15:16:25.700Z,38.10
2018-05-04T15:18:54.450Z,38.70
2018-05-04T15:21:23.689Z,38.30
2018-05-04T15:26:16.132Z,39.00
2018-05-04T15:28:58.663Z,37.80
2018-05-04T15:31:28.182Z,38.40
2018-05-04T15:33:58.154Z,38.00
2018-05-04T15:36:28.203Z,38.00
2018-05-04T15:41:34.094Z,37.80
2018-05-04T15:44:03.320Z,38.50
2018-05-04T15:49:29.024Z,38.40
2018-05-04T15:52:06.537Z,38.10
2018-05-04T15:54:35.638Z,38.30
2018-05-04T15:57:05.500Z,39.10
2018-05-04T15:59:34.265Z,38.00
2018-05-04T16:02:07.773Z,38.10
2018-05-04T16:04:37.749Z,39.70
2018-05-04T16:07:10.767Z,39.90
2018-05-04T16:09:40.651Z,38.70
2018-05-04T16:12:12.871Z,38.70
2018-05-04T16:14:46.163Z,38.60
2018-05-04T16:17:16.453Z,38.70
2018-05-04T16:19:45.678Z,38.70
2018-05-04T16:22:17.595Z,38.40
2018-05-04T16:24:47.752Z,38.50
2018-05-04T16:27:18.781Z,38.90
2018-05-04T16:29:48.189Z,38.40
2018-05-04T16:32:21.366Z,38.60
2018-05-04T16:34:51.630Z,38.90
2018-05-04T16:37:24.231Z,38.90
2018-05-04T16:39:53.736Z,39.50
2018-05-04T16:42:25.885Z,38.50
2018-05-04T16:44:54.928Z,38.80
2018-05-04T16:47:28.080Z,38.80
2018-05-04T16:49:57.984Z,39.20
2018-05-04T16:52:30.020Z,39.40
2018-05-04T16:54:58.747Z,39.10
2018-05-04T16:57:32.354Z,39.60
2018-05-04T17:00:02.956Z,40.00
2018-05-04T17:02:34.056Z,40.30
2018-05-04T17:31:26.319Z,38.80
2018-05-04T17:33:55.141Z,39.50
2018-05-04T17:36:25.038Z,40.60
2018-05-04T17:38:54.381Z,40.30
2018-05-04T17:41:23.126Z,40.60
2018-05-04T17:43:55.755Z,41.60
2018-05-04T17:46:24.626Z,41.10
2018-05-04T17:48:56.090Z,41.40
2018-05-04T17:51:25.384Z,41.60
2018-05-04T17:53:59.203Z,42.10
2018-05-04T17:56:28.710Z,41.70
2018-05-04T17:59:01.373Z,42.10
2018-05-04T18:01:30.156Z,42.10
2018-05-04T18:04:04.679Z,42.70
2018-05-04T18:06:34.320Z,42.90
2018-05-04T18:09:07.531Z,43.20
2018-05-04T18:11:38.107Z,44.30
2018-05-04T18:14:10.742Z,44.20
2018-05-04T18:16:40.452Z,44.00
2018-05-04T18:19:13.071Z,44.20
2018-05-04T18:21:43.349Z,44.60
2018-05-04T18:24:18.780Z,45.10
2018-05-04T18:26:48.211Z,45.50
2018-05-04T18:29:17.810Z,45.90
2018-05-04T18:31:47.704Z,46.30
2018-05-04T18:34:19.803Z,46.20
2018-05-04T18:36:48.635Z,46.70
2018-05-04T18:39:21.403Z,46.70
2018-05-04T18:41:50.633Z,47.30
2018-05-04T18:44:32.243Z,47.90
2018-05-04T18:52:03.044Z,48.70
2018-05-04T18:54:33.592Z,48.80
2018-05-04T18:57:03.041Z,48.90
2018-05-04T18:59:32.967Z,49.60
2018-05-04T19:02:03.435Z,50.10
2018-05-04T19:04:32.660Z,50.50
2018-05-04T19:07:01.736Z,50.70
2018-05-04T19:09:35.873Z,51.30
2018-05-04T19:12:06.187Z,51.50
2018-05-04T19:14:38.924Z,51.50
2018-05-04T19:17:08.881Z,51.70
2018-05-04T19:19:41.020Z,52.00
2018-05-04T19:22:10.765Z,52.00
2018-05-04T19:24:43.342Z,52.30
2018-05-04T19:27:13.029Z,52.50
2018-05-04T19:29:46.246Z,53.10
2018-05-04T19:32:15.782Z,53.70
2018-05-04T19:34:47.888Z,53.20
2018-05-04T19:37:16.660Z,53.60
2018-05-04T19:39:51.053Z,54.10
2018-05-04T19:42:20.147Z,54.70
2018-05-04T19:44:53.231Z,55.80
2018-05-04T19:47:23.233Z,55.20
2018-05-04T19:49:55.172Z,55.50
2018-05-04T19:52:24.320Z,56.00
2018-05-04T19:54:57.570Z,56.30
2018-05-04T19:57:26.438Z,56.50
2018-05-04T19:59:59.252Z,56.70
2018-05-04T20:02:28.723Z,57.00
2018-05-04T20:05:02.264Z,57.00
2018-05-04T20:10:06.386Z,57.10
2018-05-04T20:15:09.334Z,57.10
2018-05-04T20:17:38.375Z,57.20
2018-05-04T20:20:12.610Z,57.30
2018-05-04T20:27:43.700Z,57.20
2018-05-04T20:30:16.122Z,57.00
2018-05-04T20:32:45.179Z,57.00
2018-05-04T20:35:18.635Z,56.90
2018-05-04T20:37:47.839Z,57.20
2018-05-04T20:40:20.909Z,56.80
2018-05-04T20:42:49.660Z,56.90
2018-05-04T20:45:23.121Z,56.90
2018-05-04T20:47:53.023Z,56.80
2018-05-04T20:50:24.006Z,56.90
2018-05-04T20:52:52.923Z,56.80
2018-05-04T20:55:26.225Z,57.10
2018-05-04T20:57:55.655Z,57.20
2018-05-04T21:00:28.148Z,57.90
2018-05-04T21:02:58.064Z,57.50
2018-05-04T21:07:59.311Z,58.10
2018-05-04T21:10:33.126Z,59.40
2018-05-04T21:15:36.677Z,58.70
2018-05-04T21:18:06.344Z,59.00
2018-05-04T21:20:38.576Z,59.80
2018-05-04T21:23:08.977Z,59.10
2018-05-04T21:25:39.126Z,59.60
2018-05-04T21:28:09.664Z,59.30
2018-05-04T21:30:41.655Z,59.40
2018-05-04T21:33:10.403Z,59.20
2018-05-04T21:35:43.780Z,59.40
2018-05-04T21:38:13.975Z,59.50
2018-05-04T21:40:46.336Z,59.70
2018-05-04T21:43:15.408Z,59.90
2018-05-04T21:45:48.555Z,60.30
2018-05-04T21:48:18.125Z,60.80
2018-05-04T21:50:52.990Z,60.50
2018-05-04T21:53:22.982Z,60.60
2018-05-04T21:55:53.627Z,61.00
2018-05-04T21:58:23.101Z,61.10
2018-05-04T22:00:57.995Z,61.30
2018-05-04T22:03:28.101Z,61.60
2018-05-04T22:06:00.248Z,61.70
2018-05-04T22:08:30.266Z,61.80
2018-05-04T22:11:03.331Z,63.50
2018-05-04T22:13:33.024Z,62.20
2018-05-04T22:16:05.384Z,62.60
2018-05-04T22:18:36.061Z,62.60
2018-05-04T22:21:11.490Z,62.80
2018-05-04T22:23:40.292Z,62.80
2018-05-04T22:26:10.544Z,63.00
2018-05-04T22:28:39.412Z,63.10
2018-05-04T22:31:22.448Z,64.30
2018-05-04T22:33:52.266Z,63.30
2018-05-04T22:41:20.788Z,64.50
2018-05-04T22:43:52.197Z,65.40
2018-05-04T22:46:21.832Z,65.30
2018-05-04T22:48:51.442Z,64.60
2018-05-04T22:51:22.237Z,65.10
2018-05-04T22:53:51.993Z,65.30
2018-05-04T22:56:21.979Z,65.00
2018-05-04T22:58:51.056Z,65.10
2018-05-04T23:01:24.279Z,65.00
2018-05-04T23:03:53.284Z,65.20
2018-05-04T23:08:54.588Z,65.70
2018-05-04T23:11:28.640Z,66.20
2018-05-04T23:13:58.042Z,65.20
2018-05-04T23:16:31.680Z,65.30
2018-05-04T23:21:32.876Z,66.20
2018-05-04T23:24:01.599Z,66.60
2018-05-04T23:26:43.716Z,67.20
2018-05-04T23:29:13.637Z,67.30
2018-05-04T23:31:43.139Z,67.40
2018-05-04T23:34:13.387Z,67.50
2018-05-04T23:39:12.958Z,67.00
2018-05-04T23:41:42.378Z,68.00
2018-05-04T23:46:45.463Z,67.60
2018-05-04T23:49:14.483Z,68.00
2018-05-04T23:51:55.499Z,67.90
2018-05-04T23:54:24.584Z,67.80
2018-05-04T23:56:54.517Z,67.90
2018-05-04T23:59:23.258Z,68.00
